Time;durP1;ratioP1;P1;durP2;ratioP2;P2;SDS_P1;SDS_P2;PMS_P1;PMS_P2;Temp;Humidity;BMP_temperature;BMP_pressure;BME280_temperature;BME280_humidity;BME280_pressure;Samples;Min_cycle;Max_cycle;Signal;HPM_P1;HPM_P2
2023/11/27 18:56:20;;;;;;;5.88;4.63;;;-1.00;99.90;;;-144.05;82.22;57086.72;5013164;28;20171;-82
2023/11/27 18:58:48;;;;;;;7.35;4.75;;;-1.60;99.90;;;-144.05;81.29;57090.97;5011584;28;20040;-84
2023/11/27 19:01:15;;;;;;;7.53;6.05;;;;;;;-144.05;80.13;57090.97;4989156;28;20551;-84
2023/11/27 19:03:42;;;;;;;8.73;6.88;;;-1.00;99.90;;;-144.05;80.15;57093.09;4988358;28;20110;-85
2023/11/27 19:06:09;;;;;;;7.80;5.80;;;-1.30;99.90;;;-144.05;80.97;57086.72;4989899;28;20022;-84
2023/11/27 19:08:36;;;;;;;10.18;6.38;;;;;;;-144.05;81.12;57080.34;4992907;28;20423;-85
2023/11/27 19:11:03;;;;;;;9.10;6.32;;;;;;;-144.05;81.08;57084.59;4996756;28;20120;-84
2023/11/27 19:13:29;;;;;;;9.93;6.65;;;;;;;-144.05;80.85;57093.09;4976912;28;20035;-83
2023/11/27 19:15:56;;;;;;;9.90;6.78;;;;;;;-144.05;81.35;57120.72;5011426;28;20495;-85
2023/11/27 19:18:27;;;;;;;11.20;6.45;;;-1.80;99.90;;;-144.05;81.19;57103.72;4988567;28;20182;-86
2023/11/27 19:20:54;;;;;;;9.80;6.95;;;;;;;-144.05;81.45;57099.47;4988438;28;20068;-84
2023/11/27 19:23:21;;;;;;;9.40;7.00;;;1.60;99.90;;;-144.05;81.26;57101.59;5001876;28;20034;-85
2023/11/27 19:25:48;;;;;;;10.02;6.97;;;-1.90;99.90;;;-144.05;81.41;57116.47;4999132;28;20503;-85
2023/11/27 19:28:14;;;;;;;9.65;6.80;;;;;;;-144.05;82.35;57073.97;4988866;28;20031;-83
2023/11/27 19:30:43;;;;;;;9.15;6.70;;;;;;;-144.05;82.22;57110.09;4989838;28;20031;-83
2023/11/27 19:33:10;;;;;;;10.15;7.40;;;1.30;99.90;;;-144.05;82.37;57141.94;4996649;28;20081;-82
2023/11/27 19:35:39;;;;;;;10.93;8.10;;;-2.10;99.90;;;-144.05;82.47;57112.22;4985527;28;20035;-83
2023/11/27 19:38:06;;;;;;;23.23;11.07;;;;;;;-144.05;82.91;57099.47;4992877;28;20029;-81
2023/11/27 19:40:35;;;;;;;14.63;8.95;;;;;;;-144.05;83.07;57116.47;5009596;28;20069;-85
2023/11/27 19:43:03;;;;;;;12.15;6.97;;;;;;;-144.05;83.19;57118.59;4986736;28;20031;-82
2023/11/27 19:45:30;;;;;;;25.67;11.15;;;;;;;-144.05;82.79;57120.72;4989891;28;20046;-79
2023/11/27 19:47:57;;;;;;;21.08;11.10;;;-1.70;99.90;;;-144.05;82.48;57120.72;4990558;28;20038;-81
2023/11/27 19:50:24;;;;;;;52.20;19.38;;;;;;;-144.05;82.67;57107.97;4992685;28;20112;-83
2023/11/27 19:52:50;;;;;;;12.90;8.35;;;;;;;-144.05;82.99;57110.09;4989359;28;20377;-85
2023/11/27 19:55:16;;;;;;;19.05;10.30;;;-2.40;99.90;;;-144.05;83.22;57110.09;4989415;28;20038;-84
2023/11/27 19:57:43;;;;;;;16.00;10.23;;;;;;;-144.05;83.28;57133.44;4985521;28;20023;-79
2023/11/27 20:00:14;;;;;;;19.80;11.02;;;-1.90;99.90;;;-144.05;83.46;57093.09;4991163;28;20039;-80
2023/11/27 20:02:41;;;;;;;68.38;24.00;;;;;;;-144.05;83.42;57099.47;5013255;28;20030;-79
2023/11/27 20:05:08;;;;;;;20.70;10.00;;;1.30;99.90;;;-144.05;83.33;57090.97;4990466;28;20119;-83
2023/11/27 20:07:35;;;;;;;16.08;9.15;;;;;;;-144.05;83.97;57097.34;4973284;28;20031;-83
2023/11/27 20:10:02;;;;;;;17.88;9.90;;;;;;;-144.05;83.82;57120.72;5003976;28;20046;-82
2023/11/27 20:12:28;;;;;;;13.43;8.80;;;;;;;-144.05;84.09;57118.59;4999037;28;20023;-86
2023/11/27 20:14:54;;;;;;;22.52;11.60;;;-2.30;99.90;;;-144.05;84.42;57099.47;5001290;28;20031;-85
2023/11/27 20:17:20;;;;;;;19.08;10.15;;;-2.00;99.90;;;-144.05;84.37;57107.97;4979242;28;20553;-81
2023/11/27 20:19:50;;;;;;;21.50;11.02;;;;;;;-144.05;83.94;57103.72;4981992;28;20023;-80
2023/11/27 20:22:16;;;;;;;13.02;8.50;;;;;;;-144.05;84.20;57107.97;5023517;28;20039;-82
2023/11/27 20:24:45;;;;;;;31.25;14.07;;;;;;;-144.05;84.22;57107.97;5002945;28;20034;-86
2023/11/27 20:27:11;;;;;;;57.08;21.02;;;;;;;-144.05;84.40;57154.69;4981069;28;20610;-85
2023/11/27 20:29:44;;;;;;;27.77;13.02;;;-2.30;99.90;;;-144.05;84.04;57101.59;4976837;28;20038;-83
2023/11/27 20:32:13;;;;;;;21.70;11.13;;;;;;;-144.05;84.24;57112.22;4978579;28;20035;-82
2023/11/27 20:34:40;;;;;;;16.65;10.05;;;;;;;-144.05;83.85;57131.31;4977701;28;20035;-84
2023/11/27 20:37:06;;;;;;;21.88;11.70;;;;;;;-144.05;84.01;57090.97;4982456;28;20027;-81
2023/11/27 20:39:33;;;;;;;13.73;8.40;;;;;;;-144.05;84.33;57080.34;4975414;28;20120;-80
2023/11/27 20:41:59;;;;;;;11.30;7.93;;;-2.10;99.90;;;-144.05;84.39;57107.97;4975002;28;20402;-83
2023/11/27 20:44:26;;;;;;;20.40;12.13;;;;;;;-144.05;84.52;57110.09;4975530;28;20047;-84
2023/11/27 20:46:52;;;;;;;13.75;8.40;;;;;;;-144.05;84.52;57135.56;4977458;28;20027;-82
2023/11/27 20:49:18;;;;;;;14.25;8.93;;;;;;;-144.05;84.72;57105.84;4982774;28;20058;-81
2023/11/27 20:51:45;;;;;;;14.40;8.63;;;;;;;-144.05;84.69;57103.72;4975661;28;20031;-82
2023/11/27 20:54:11;;;;;;;13.05;8.20;;;;;;;-144.05;84.58;57116.47;4977817;28;20034;-84
2023/11/27 20:56:37;;;;;;;13.27;8.60;;;;;;;-144.05;84.75;57122.84;4974176;28;20035;-86
2023/11/27 20:59:04;;;;;;;13.10;8.20;;;;;;;-144.05;84.62;57124.97;4976511;28;20480;-84
2023/11/27 21:01:30;;;;;;;11.23;7.68;;;;;;;-144.05;84.77;57133.44;4977890;28;20031;-86
2023/11/27 21:03:56;;;;;;;13.57;8.88;;;;;;;-144.05;85.23;57110.09;4975604;28;20035;-83
2023/11/27 21:06:26;;;;;;;12.57;8.15;;;;;;;-144.05;84.31;57116.47;4979714;28;20042;-83
2023/11/27 21:08:52;;;;;;;12.20;7.35;;;;;;;-144.05;84.52;57101.59;4979416;28;20035;-85
2023/11/27 21:11:20;;;;;;;12.30;7.57;;;;;;;-144.05;84.50;57107.97;4978542;28;20137;-82
2023/11/27 21:13:47;;;;;;;10.70;7.38;;;;;;;-144.05;84.56;57116.47;4976010;28;20046;-82
2023/11/27 21:16:13;;;;;;;13.63;8.38;;;;;;;-144.05;84.61;57116.47;4980776;28;20045;-80
2023/11/27 21:18:42;;;;;;;11.38;7.75;;;1.90;99.90;;;-144.05;84.81;57112.22;4972787;28;20030;-82
2023/11/27 21:21:08;;;;;;;12.80;8.02;;;;;;;-144.05;84.79;57110.09;4974555;28;20073;-84
2023/11/27 21:23:34;;;;;;;12.35;7.50;;;;;;;-144.05;84.57;57116.47;4973956;28;20027;-83
2023/11/27 21:26:01;;;;;;;13.20;8.48;;;;;;;-144.05;84.76;57129.22;4975099;28;20030;-84
2023/11/27 21:28:27;;;;;;;13.57;8.55;;;;;;;-144.05;84.14;57110.09;4976668;28;20494;-83
2023/11/27 21:30:53;;;;;;;14.77;8.93;;;-2.10;99.90;;;-144.05;84.30;57122.84;4965747;28;20035;-83
2023/11/27 21:33:19;;;;;;;31.42;15.18;;;;;;;-144.05;84.46;57120.72;4973546;28;20511;-83
2023/11/27 21:35:46;;;;;;;30.50;13.68;;;;;;;-144.05;84.76;57135.56;4989003;28;20039;-82
2023/11/27 21:38:11;;;;;;;81.53;24.52;;;-2.80;99.90;;;-144.05;85.19;57131.31;4972819;28;20114;-82
2023/11/27 21:40:38;;;;;;;90.35;29.65;;;;;;;-144.05;85.09;57131.31;4972747;28;20062;-80
2023/11/27 21:43:04;;;;;;;110.50;37.88;;;;;;;-144.05;84.80;57120.72;4975506;28;20034;-80
2023/11/27 21:45:30;;;;;;;64.05;23.50;;;;;;;-144.05;84.84;57120.72;4975527;28;20086;-81
2023/11/27 21:47:57;;;;;;;37.60;15.05;;;;;;;-144.05;84.16;57112.22;4974840;28;20038;-82
2023/11/27 21:50:24;;;;;;;19.35;10.02;;;;;;;-144.05;84.68;57124.97;4987410;28;20045;-81
2023/11/27 21:52:51;;;;;;;15.90;8.75;;;-2.50;99.90;;;-144.05;84.30;57129.22;4983130;28;20132;-81
2023/11/27 21:55:17;;;;;;;45.28;22.38;;;;;;;-144.05;84.19;57107.97;4972934;28;20126;-81
2023/11/27 21:57:43;;;;;;;38.95;18.08;;;1.50;99.90;;;-144.05;84.19;57101.59;4973558;28;20117;-82
2023/11/27 22:00:10;;;;;;;23.45;11.93;;;;;;;-144.05;83.82;57082.47;4975875;28;20490;-81
2023/11/27 22:02:36;;;;;;;39.75;17.40;;;;;;;-144.05;84.29;57156.81;4974687;28;20094;-79
2023/11/27 22:05:03;;;;;;;19.95;10.70;;;;;;;-144.05;84.11;57124.97;4971459;28;20027;-81
2023/11/27 22:07:32;;;;;;;36.08;14.95;;;1.00;99.90;;;-144.05;84.15;57144.06;4972943;28;20062;-81
2023/11/27 22:09:59;;;;;;;13.75;8.30;;;;;;;-144.05;83.75;57133.44;5001676;28;20116;-80
2023/11/27 22:12:25;;;;;;;22.67;11.23;;;1.00;99.90;;;-144.05;84.04;57116.47;4971512;28;20517;-82
2023/11/27 22:14:51;;;;;;;26.75;12.07;;;-2.90;99.90;;;-144.05;84.16;57127.09;4999351;28;20032;-82
2023/11/27 22:17:18;;;;;;;19.90;11.20;;;-2.40;99.90;;;-144.05;83.99;57116.47;4973883;28;20507;-81
2023/11/27 22:19:44;;;;;;;16.95;9.35;;;;;;;-144.05;83.85;57107.97;4973208;28;20463;-83
2023/11/27 22:22:10;;;;;;;17.42;9.85;;;;;;;-144.05;84.06;57120.72;4973531;28;20031;-81
2023/11/27 22:24:37;;;;;;;15.55;9.43;;;;;;;-144.05;83.99;57129.22;4974336;28;20023;-79
2023/11/27 22:27:03;;;;;;;16.85;10.13;;;;;;;-144.05;83.94;57103.72;4974019;28;20090;-81
2023/11/27 22:29:29;;;;;;;16.75;10.70;;;;;;;-144.05;83.52;57103.72;4969340;28;20053;-82
2023/11/27 22:31:56;;;;;;;16.48;9.38;;;;;;;-144.05;83.80;57112.22;4992819;28;20392;-82
2023/11/27 22:34:22;;;;;;;16.05;9.93;;;;;;;-144.05;83.67;57144.06;5011141;28;20042;-83
2023/11/27 22:36:48;;;;;;;16.27;9.88;;;;;;;-144.05;83.79;57120.72;4979761;28;20052;-82
2023/11/27 22:39:17;;;;;;;15.93;9.88;;;;;;;-144.05;84.29;57137.69;4989937;28;20034;-81
2023/11/27 22:41:45;;;;;;;15.63;9.82;;;;;;;-144.05;84.22;57116.47;4992053;28;20535;-82
2023/11/27 22:44:11;;;;;;;16.38;10.45;;;;;;;-144.05;84.53;57107.97;4977015;28;20031;-81
2023/11/27 22:46:40;;;;;;;16.00;10.60;;;0.90;99.90;;;-144.05;84.66;57090.97;5000979;28;20038;-84
2023/11/27 22:49:06;;;;;;;15.93;10.27;;;1.00;99.90;;;-144.05;84.22;57129.22;4971569;28;20031;-84
2023/11/27 22:51:32;;;;;;;15.30;10.32;;;;;;;-144.05;83.84;57110.09;4972962;28;20039;-83
2023/11/27 22:53:59;;;;;;;15.10;9.68;;;;;;;-144.05;84.29;57095.22;4998125;28;20047;-83
2023/11/27 22:56:26;;;;;;;16.98;10.10;;;;;;;-144.05;83.72;57116.47;4972319;28;20030;-83
2023/11/27 22:58:52;;;;;;;15.85;9.98;;;;;;;-144.05;84.36;57118.59;4972306;28;20041;-82
2023/11/27 23:01:18;;;;;;;15.63;9.27;;;;;;;-144.05;84.10;57112.22;4971333;28;20039;-81
2023/11/27 23:03:45;;;;;;;14.75;9.85;;;;;;;-144.05;84.06;57114.34;4987415;28;20033;-83
2023/11/27 23:06:12;;;;;;;17.88;9.32;;;;;;;-144.05;84.17;57118.59;4977670;28;20037;-83
2023/11/27 23:08:39;;;;;;;15.98;10.25;;;-2.60;99.90;;;-144.05;84.16;57107.97;4974308;28;20534;-83
2023/11/27 23:11:11;;;;;;;17.15;9.90;;;0.90;99.90;;;-144.05;84.52;57099.47;4968364;28;20439;-83
2023/11/27 23:13:38;;;;;;;14.13;9.52;;;;;;;-144.05;83.87;57116.47;4973030;28;20034;-82
2023/11/27 23:16:12;;;;;;;16.20;10.10;;;1.00;99.90;;;-144.05;84.17;57107.97;4972586;28;20063;-83
2023/11/27 23:18:38;;;;;;;14.07;9.25;;;;;;;-144.05;84.11;57099.47;4996393;28;20030;-84
2023/11/27 23:21:05;;;;;;;16.83;9.68;;;;;;;-144.05;84.33;57101.59;4972444;28;20037;-84
2023/11/27 23:23:31;;;;;;;15.65;9.70;;;;;;;-144.05;84.44;57120.72;4972590;28;20027;-84
2023/11/27 23:25:57;;;;;;;14.68;9.25;;;;;;;-144.05;84.26;57146.19;4973480;28;20143;-83
2023/11/27 23:28:23;;;;;;;13.43;8.40;;;;;;;-144.05;84.15;57144.06;4978797;28;20039;-83
2023/11/27 23:30:49;;;;;;;12.10;8.25;;;;;;;-144.05;84.17;57090.97;4975569;28;20460;-84
2023/11/27 23:33:16;;;;;;;12.65;8.00;;;;;;;-144.05;84.41;57127.09;4982893;28;20041;-84
2023/11/27 23:35:44;;;;;;;10.43;7.15;;;1.00;99.90;;;-144.05;84.26;57120.72;4992407;28;20033;-82
2023/11/27 23:38:14;;;;;;;10.57;6.97;;;1.00;99.90;;;-144.05;84.45;57103.72;4982500;28;20053;-82
2023/11/27 23:40:41;;;;;;;10.50;7.20;;;;;;;-144.05;84.15;57120.72;5001178;28;20540;-81
2023/11/27 23:43:11;;;;;;;9.13;6.38;;;;;;;-144.05;84.29;57122.84;4977635;28;20027;-83
2023/11/27 23:45:38;;;;;;;8.65;5.95;;;;;;;-144.05;84.19;57099.47;5028635;28;20027;-83
2023/11/27 23:48:04;;;;;;;10.25;6.95;;;;;;;-144.05;84.34;57137.69;4973441;28;20038;-82
2023/11/27 23:50:30;;;;;;;9.27;6.57;;;;;;;-144.05;84.57;57118.59;4974768;28;20037;-83
2023/11/27 23:52:58;;;;;;;10.27;6.90;;;;;;;-144.05;84.24;57127.09;4989182;28;20031;-82
2023/11/27 23:55:24;;;;;;;9.00;6.75;;;;;;;-144.05;84.20;57116.47;4973989;28;20039;-82
2023/11/27 23:57:51;;;;;;;10.45;7.10;;;;;;;-144.05;84.27;57120.72;4973287;28;20041;-83
